Brookhaven Weather

Current Time: 02:12 Zulu

HWV METARs

Local Time Temperature Dew Point Wind Direction Wind Speed Wind Gust Sky Vis.
12/15/2018 1:56:00 AM 7.8° c 7.2° c 160° 5 kt - OVC 8500 ft AGL 7.0 sm
12/15/2018 12:56:00 AM 7.8° c 7.2° c 140° 3 kt - OVC 8500 ft AGL 4.0 sm
12/14/2018 11:56:00 PM 7.8° c 7.2° c 150° 4 kt - SCT 9500 ft AGL 9.0 sm
12/14/2018 10:56:00 PM 7.8° c 6.1° c variable 0 kt - FEW 7000 ft AGL 10.0 sm

ISP TAF:

KISP 142351Z 1500/1524 16003KT P6SM SCT015 OVC090 TEMPO 1500/1501 6SM -RA BKN015 OVC090 
FM150700 VRB03KT 5SM -RA BR SCT015 BKN025 
FM150900 VRB03KT 3SM -RA BR SCT007 BKN015 
FM151600 01010KT P6SM SCT015 BKN025 
FM151900 04011KT P6SM SCT035 BKN200
Weather data provided by aviationweather.gov. Pilots must verify weather before flying.